sensor_id;sensor_type;location;lat;lon;timestamp;P1;durP1;ratioP1;P2;durP2;ratioP2
6823;SDS011;58633;49.470;11.004;2023-02-12T00:01:37;37.27;;;20.07;;
6823;SDS011;58633;49.470;11.004;2023-02-12T00:04:02;34.00;;;18.70;;
6823;SDS011;58633;49.470;11.004;2023-02-12T00:06:28;34.30;;;18.87;;
6823;SDS011;58633;49.470;11.004;2023-02-12T00:08:54;35.27;;;19.50;;
6823;SDS011;58633;49.470;11.004;2023-02-12T00:11:23;34.03;;;19.67;;
6823;SDS011;58633;49.470;11.004;2023-02-12T00:13:51;36.77;;;20.03;;
6823;SDS011;58633;49.470;11.004;2023-02-12T00:16:19;34.83;;;19.53;;
6823;SDS011;58633;49.470;11.004;2023-02-12T00:18:53;33.67;;;19.13;;
6823;SDS011;58633;49.470;11.004;2023-02-12T00:21:20;31.00;;;18.03;;
6823;SDS011;58633;49.470;11.004;2023-02-12T00:23:46;34.03;;;18.77;;
6823;SDS011;58633;49.470;11.004;2023-02-12T00:26:13;31.77;;;18.40;;
6823;SDS011;58633;49.470;11.004;2023-02-12T00:28:41;35.53;;;19.87;;
6823;SDS011;58633;49.470;11.004;2023-02-12T00:31:07;32.53;;;18.43;;
6823;SDS011;58633;49.470;11.004;2023-02-12T00:33:34;33.93;;;18.23;;
6823;SDS011;58633;49.470;11.004;2023-02-12T00:36:00;34.93;;;18.67;;
6823;SDS011;58633;49.470;11.004;2023-02-12T00:38:25;32.33;;;18.40;;
6823;SDS011;58633;49.470;11.004;2023-02-12T00:40:51;32.00;;;18.63;;
6823;SDS011;58633;49.470;11.004;2023-02-12T00:43:17;38.10;;;21.50;;
6823;SDS011;58633;49.470;11.004;2023-02-12T00:45:44;36.40;;;20.57;;
6823;SDS011;58633;49.470;11.004;2023-02-12T00:48:09;40.00;;;23.00;;
6823;SDS011;58633;49.470;11.004;2023-02-12T00:50:36;37.47;;;21.53;;
6823;SDS011;58633;49.470;11.004;2023-02-12T00:53:01;33.00;;;18.70;;
6823;SDS011;58633;49.470;11.004;2023-02-12T00:55:27;36.57;;;19.60;;
6823;SDS011;58633;49.470;11.004;2023-02-12T00:57:53;33.20;;;18.70;;
6823;SDS011;58633;49.470;11.004;2023-02-12T01:00:19;34.77;;;19.20;;
6823;SDS011;58633;49.470;11.004;2023-02-12T01:02:45;35.80;;;19.57;;
6823;SDS011;58633;49.470;11.004;2023-02-12T01:05:10;33.97;;;19.60;;
6823;SDS011;58633;49.470;11.004;2023-02-12T01:07:36;33.37;;;19.37;;
6823;SDS011;58633;49.470;11.004;2023-02-12T01:10:02;38.37;;;21.47;;
6823;SDS011;58633;49.470;11.004;2023-02-12T01:12:29;40.03;;;22.73;;
6823;SDS011;58633;49.470;11.004;2023-02-12T01:14:55;33.93;;;19.97;;
6823;SDS011;58633;49.470;11.004;2023-02-12T01:17:20;37.37;;;19.53;;
6823;SDS011;58633;49.470;11.004;2023-02-12T01:19:46;34.83;;;18.93;;
6823;SDS011;58633;49.470;11.004;2023-02-12T01:22:11;32.00;;;18.43;;
6823;SDS011;58633;49.470;11.004;2023-02-12T01:24:37;32.70;;;18.40;;
6823;SDS011;58633;49.470;11.004;2023-02-12T01:27:02;33.47;;;18.27;;
6823;SDS011;58633;49.470;11.004;2023-02-12T01:29:28;36.97;;;19.50;;
6823;SDS011;58633;49.470;11.004;2023-02-12T01:31:53;32.70;;;18.27;;
6823;SDS011;58633;49.470;11.004;2023-02-12T01:34:19;39.13;;;19.67;;
6823;SDS011;58633;49.470;11.004;2023-02-12T01:36:44;35.80;;;19.03;;
6823;SDS011;58633;49.470;11.004;2023-02-12T01:39:10;34.20;;;18.20;;
6823;SDS011;58633;49.470;11.004;2023-02-12T01:41:38;33.53;;;18.10;;
6823;SDS011;58633;49.470;11.004;2023-02-12T01:46:45;33.93;;;18.50;;
6823;SDS011;58633;49.470;11.004;2023-02-12T01:49:22;34.40;;;18.27;;
6823;SDS011;58633;49.470;11.004;2023-02-12T01:51:53;34.93;;;18.77;;
6823;SDS011;58633;49.470;11.004;2023-02-12T01:54:26;40.00;;;18.80;;
6823;SDS011;58633;49.470;11.004;2023-02-12T01:56:52;33.43;;;18.30;;
6823;SDS011;58633;49.470;11.004;2023-02-12T01:59:19;32.33;;;18.73;;
6823;SDS011;58633;49.470;11.004;2023-02-12T02:01:45;35.17;;;18.53;;
6823;SDS011;58633;49.470;11.004;2023-02-12T02:04:13;37.23;;;19.17;;
6823;SDS011;58633;49.470;11.004;2023-02-12T02:06:46;32.47;;;17.60;;
6823;SDS011;58633;49.470;11.004;2023-02-12T02:09:27;34.13;;;18.20;;
6823;SDS011;58633;49.470;11.004;2023-02-12T02:11:54;33.10;;;18.23;;
6823;SDS011;58633;49.470;11.004;2023-02-12T02:14:39;33.87;;;18.13;;
6823;SDS011;58633;49.470;11.004;2023-02-12T02:17:14;37.73;;;19.77;;
6823;SDS011;58633;49.470;11.004;2023-02-12T02:25:50;35.97;;;18.83;;
6823;SDS011;58633;49.470;11.004;2023-02-12T02:31:19;39.73;;;18.70;;
6823;SDS011;58633;49.470;11.004;2023-02-12T02:34:10;35.60;;;18.37;;
6823;SDS011;58633;49.470;11.004;2023-02-12T02:37:13;36.47;;;18.60;;
6823;SDS011;58633;49.470;11.004;2023-02-12T02:39:53;37.30;;;18.70;;
6823;SDS011;58633;49.470;11.004;2023-02-12T02:45:11;34.43;;;18.97;;
6823;SDS011;58633;49.470;11.004;2023-02-12T02:47:57;34.37;;;18.77;;
6823;SDS011;58633;49.470;11.004;2023-02-12T02:50:28;37.27;;;19.20;;
6823;SDS011;58633;49.470;11.004;2023-02-12T02:53:03;32.73;;;18.03;;
6823;SDS011;58633;49.470;11.004;2023-02-12T02:55:37;35.40;;;18.77;;
6823;SDS011;58633;49.470;11.004;2023-02-12T02:58:14;34.40;;;19.13;;
6823;SDS011;58633;49.470;11.004;2023-02-12T03:00:44;34.43;;;19.27;;
6823;SDS011;58633;49.470;11.004;2023-02-12T03:03:33;35.27;;;19.23;;
6823;SDS011;58633;49.470;11.004;2023-02-12T03:06:14;33.00;;;18.60;;
6823;SDS011;58633;49.470;11.004;2023-02-12T03:08:59;37.37;;;18.90;;
6823;SDS011;58633;49.470;11.004;2023-02-12T03:11:30;32.73;;;18.50;;
6823;SDS011;58633;49.470;11.004;2023-02-12T03:14:07;36.87;;;18.90;;
6823;SDS011;58633;49.470;11.004;2023-02-12T03:16:49;34.87;;;19.30;;
6823;SDS011;58633;49.470;11.004;2023-02-12T03:19:21;33.87;;;18.77;;
6823;SDS011;58633;49.470;11.004;2023-02-12T03:21:56;38.10;;;19.40;;
6823;SDS011;58633;49.470;11.004;2023-02-12T03:27:19;35.87;;;19.20;;
6823;SDS011;58633;49.470;11.004;2023-02-12T03:29:50;39.23;;;18.97;;
6823;SDS011;58633;49.470;11.004;2023-02-12T03:32:24;39.77;;;20.60;;
6823;SDS011;58633;49.470;11.004;2023-02-12T03:35:12;37.13;;;19.03;;
6823;SDS011;58633;49.470;11.004;2023-02-12T03:37:55;39.77;;;19.40;;
6823;SDS011;58633;49.470;11.004;2023-02-12T03:40:42;37.07;;;18.90;;
6823;SDS011;58633;49.470;11.004;2023-02-12T03:43:26;39.00;;;19.80;;
6823;SDS011;58633;49.470;11.004;2023-02-12T03:46:04;40.10;;;19.67;;
6823;SDS011;58633;49.470;11.004;2023-02-12T03:48:46;40.93;;;19.70;;
6823;SDS011;58633;49.470;11.004;2023-02-12T03:51:43;34.80;;;18.47;;
6823;SDS011;58633;49.470;11.004;2023-02-12T03:54:09;35.50;;;19.87;;
6823;SDS011;58633;49.470;11.004;2023-02-12T03:59:25;42.53;;;20.07;;
6823;SDS011;58633;49.470;11.004;2023-02-12T04:01:52;35.77;;;19.53;;
6823;SDS011;58633;49.470;11.004;2023-02-12T04:04:19;37.03;;;19.47;;
6823;SDS011;58633;49.470;11.004;2023-02-12T04:06:45;43.87;;;20.23;;
6823;SDS011;58633;49.470;11.004;2023-02-12T04:09:13;41.37;;;20.03;;
6823;SDS011;58633;49.470;11.004;2023-02-12T04:19:26;36.67;;;18.87;;
6823;SDS011;58633;49.470;11.004;2023-02-12T04:24:40;35.70;;;19.27;;
6823;SDS011;58633;49.470;11.004;2023-02-12T04:27:16;36.73;;;19.97;;
6823;SDS011;58633;49.470;11.004;2023-02-12T04:35:24;37.50;;;20.17;;
6823;SDS011;58633;49.470;11.004;2023-02-12T04:40:41;42.13;;;20.07;;
6823;SDS011;58633;49.470;11.004;2023-02-12T04:43:08;36.70;;;19.03;;
6823;SDS011;58633;49.470;11.004;2023-02-12T04:45:34;38.47;;;19.43;;
6823;SDS011;58633;49.470;11.004;2023-02-12T04:48:01;36.37;;;19.77;;
6823;SDS011;58633;49.470;11.004;2023-02-12T04:50:29;36.10;;;19.67;;
6823;SDS011;58633;49.470;11.004;2023-02-12T04:53:03;39.73;;;20.40;;
6823;SDS011;58633;49.470;11.004;2023-02-12T04:55:29;37.70;;;19.70;;
6823;SDS011;58633;49.470;11.004;2023-02-12T04:57:54;36.97;;;20.40;;
6823;SDS011;58633;49.470;11.004;2023-02-12T05:00:20;41.10;;;20.57;;
6823;SDS011;58633;49.470;11.004;2023-02-12T05:02:46;41.73;;;20.90;;
6823;SDS011;58633;49.470;11.004;2023-02-12T05:05:11;39.17;;;20.17;;
6823;SDS011;58633;49.470;11.004;2023-02-12T05:07:37;38.97;;;20.63;;
6823;SDS011;58633;49.470;11.004;2023-02-12T05:10:02;37.87;;;20.80;;
6823;SDS011;58633;49.470;11.004;2023-02-12T05:12:28;37.93;;;19.93;;
6823;SDS011;58633;49.470;11.004;2023-02-12T05:14:54;38.60;;;19.73;;
6823;SDS011;58633;49.470;11.004;2023-02-12T05:17:22;37.87;;;19.67;;
6823;SDS011;58633;49.470;11.004;2023-02-12T05:19:48;38.10;;;19.97;;
6823;SDS011;58633;49.470;11.004;2023-02-12T05:22:14;41.97;;;21.17;;
6823;SDS011;58633;49.470;11.004;2023-02-12T05:24:40;37.97;;;20.03;;
6823;SDS011;58633;49.470;11.004;2023-02-12T05:27:06;41.77;;;21.00;;
6823;SDS011;58633;49.470;11.004;2023-02-12T05:29:33;39.77;;;19.40;;
6823;SDS011;58633;49.470;11.004;2023-02-12T05:31:59;40.03;;;20.20;;
6823;SDS011;58633;49.470;11.004;2023-02-12T05:34:24;40.50;;;20.33;;
6823;SDS011;58633;49.470;11.004;2023-02-12T05:36:50;40.47;;;20.43;;
6823;SDS011;58633;49.470;11.004;2023-02-12T05:39:15;38.80;;;20.67;;
6823;SDS011;58633;49.470;11.004;2023-02-12T05:41:41;40.70;;;20.60;;
6823;SDS011;58633;49.470;11.004;2023-02-12T05:44:06;37.93;;;20.07;;
6823;SDS011;58633;49.470;11.004;2023-02-12T05:46:32;41.47;;;20.47;;
6823;SDS011;58633;49.470;11.004;2023-02-12T05:48:58;38.93;;;20.27;;
6823;SDS011;58633;49.470;11.004;2023-02-12T05:51:25;39.57;;;19.87;;
6823;SDS011;58633;49.470;11.004;2023-02-12T05:53:52;41.13;;;19.93;;
6823;SDS011;58633;49.470;11.004;2023-02-12T05:56:22;38.07;;;19.60;;
6823;SDS011;58633;49.470;11.004;2023-02-12T05:58:56;37.50;;;20.00;;
6823;SDS011;58633;49.470;11.004;2023-02-12T06:01:24;39.93;;;19.97;;
6823;SDS011;58633;49.470;11.004;2023-02-12T06:03:52;41.83;;;21.00;;
6823;SDS011;58633;49.470;11.004;2023-02-12T06:06:18;44.13;;;20.80;;
6823;SDS011;58633;49.470;11.004;2023-02-12T06:08:46;40.53;;;21.13;;
6823;SDS011;58633;49.470;11.004;2023-02-12T06:11:13;42.47;;;20.50;;
6823;SDS011;58633;49.470;11.004;2023-02-12T06:13:39;42.13;;;20.77;;
6823;SDS011;58633;49.470;11.004;2023-02-12T06:16:05;41.80;;;20.40;;
6823;SDS011;58633;49.470;11.004;2023-02-12T06:18:33;40.07;;;20.80;;
6823;SDS011;58633;49.470;11.004;2023-02-12T06:21:01;40.87;;;21.07;;
6823;SDS011;58633;49.470;11.004;2023-02-12T06:23:28;43.67;;;21.80;;
6823;SDS011;58633;49.470;11.004;2023-02-12T06:25:56;40.20;;;20.97;;
6823;SDS011;58633;49.470;11.004;2023-02-12T06:28:22;40.73;;;20.97;;
6823;SDS011;58633;49.470;11.004;2023-02-12T06:30:48;46.70;;;21.77;;
6823;SDS011;58633;49.470;11.004;2023-02-12T06:33:13;42.10;;;20.70;;
6823;SDS011;58633;49.470;11.004;2023-02-12T06:35:39;40.00;;;20.83;;
6823;SDS011;58633;49.470;11.004;2023-02-12T06:38:04;42.40;;;21.40;;
6823;SDS011;58633;49.470;11.004;2023-02-12T06:40:30;39.97;;;20.60;;
6823;SDS011;58633;49.470;11.004;2023-02-12T06:42:56;39.73;;;20.43;;
6823;SDS011;58633;49.470;11.004;2023-02-12T06:45:22;43.77;;;20.63;;
6823;SDS011;58633;49.470;11.004;2023-02-12T06:47:47;40.87;;;20.53;;
6823;SDS011;58633;49.470;11.004;2023-02-12T06:50:13;42.77;;;21.00;;
6823;SDS011;58633;49.470;11.004;2023-02-12T06:52:39;39.73;;;20.47;;
6823;SDS011;58633;49.470;11.004;2023-02-12T06:55:04;43.47;;;21.53;;
6823;SDS011;58633;49.470;11.004;2023-02-12T06:57:30;41.67;;;21.40;;
6823;SDS011;58633;49.470;11.004;2023-02-12T06:59:56;37.03;;;20.10;;
6823;SDS011;58633;49.470;11.004;2023-02-12T07:02:21;41.83;;;21.90;;
6823;SDS011;58633;49.470;11.004;2023-02-12T07:04:47;41.70;;;21.60;;
6823;SDS011;58633;49.470;11.004;2023-02-12T07:07:12;42.23;;;21.60;;
6823;SDS011;58633;49.470;11.004;2023-02-12T07:09:38;45.57;;;22.17;;
6823;SDS011;58633;49.470;11.004;2023-02-12T07:12:03;44.83;;;22.23;;
6823;SDS011;58633;49.470;11.004;2023-02-12T07:14:29;43.73;;;22.60;;
6823;SDS011;58633;49.470;11.004;2023-02-12T07:16:55;45.73;;;22.67;;
6823;SDS011;58633;49.470;11.004;2023-02-12T07:19:20;44.83;;;22.83;;
6823;SDS011;58633;49.470;11.004;2023-02-12T07:21:46;43.27;;;21.73;;
6823;SDS011;58633;49.470;11.004;2023-02-12T07:24:12;43.23;;;23.33;;
6823;SDS011;58633;49.470;11.004;2023-02-12T07:26:39;42.77;;;22.13;;
6823;SDS011;58633;49.470;11.004;2023-02-12T07:29:05;43.87;;;22.63;;
6823;SDS011;58633;49.470;11.004;2023-02-12T07:31:32;42.67;;;22.17;;
6823;SDS011;58633;49.470;11.004;2023-02-12T07:33:58;45.30;;;22.20;;
6823;SDS011;58633;49.470;11.004;2023-02-12T07:36:25;41.37;;;21.67;;
6823;SDS011;58633;49.470;11.004;2023-02-12T07:38:54;39.37;;;21.70;;
6823;SDS011;58633;49.470;11.004;2023-02-12T07:41:21;47.53;;;23.37;;
6823;SDS011;58633;49.470;11.004;2023-02-12T07:43:52;39.10;;;21.53;;
6823;SDS011;58633;49.470;11.004;2023-02-12T07:46:23;44.27;;;22.03;;
6823;SDS011;58633;49.470;11.004;2023-02-12T07:48:59;43.77;;;21.90;;
6823;SDS011;58633;49.470;11.004;2023-02-12T07:51:26;42.60;;;21.37;;
6823;SDS011;58633;49.470;11.004;2023-02-12T07:53:52;42.17;;;23.03;;
6823;SDS011;58633;49.470;11.004;2023-02-12T07:56:22;40.60;;;22.10;;
6823;SDS011;58633;49.470;11.004;2023-02-12T07:58:50;45.20;;;22.20;;
6823;SDS011;58633;49.470;11.004;2023-02-12T08:01:21;43.87;;;21.63;;
6823;SDS011;58633;49.470;11.004;2023-02-12T08:03:48;44.07;;;21.90;;
6823;SDS011;58633;49.470;11.004;2023-02-12T08:06:15;43.20;;;22.40;;
6823;SDS011;58633;49.470;11.004;2023-02-12T08:08:44;42.83;;;21.87;;
6823;SDS011;58633;49.470;11.004;2023-02-12T08:11:11;42.20;;;22.40;;
6823;SDS011;58633;49.470;11.004;2023-02-12T08:13:37;44.20;;;22.27;;
6823;SDS011;58633;49.470;11.004;2023-02-12T08:16:07;42.80;;;21.87;;
6823;SDS011;58633;49.470;11.004;2023-02-12T08:18:41;44.27;;;22.33;;
6823;SDS011;58633;49.470;11.004;2023-02-12T08:21:08;44.03;;;22.37;;
6823;SDS011;58633;49.470;11.004;2023-02-12T08:23:42;44.37;;;22.53;;
6823;SDS011;58633;49.470;11.004;2023-02-12T08:28:35;42.97;;;22.07;;
6823;SDS011;58633;49.470;11.004;2023-02-12T08:31:03;45.90;;;22.57;;
6823;SDS011;58633;49.470;11.004;2023-02-12T08:33:31;42.40;;;21.33;;
6823;SDS011;58633;49.470;11.004;2023-02-12T08:36:16;44.80;;;21.27;;
6823;SDS011;58633;49.470;11.004;2023-02-12T08:38:43;48.93;;;22.27;;
6823;SDS011;58633;49.470;11.004;2023-02-12T08:41:10;46.73;;;22.67;;
6823;SDS011;58633;49.470;11.004;2023-02-12T08:43:38;42.80;;;21.93;;
6823;SDS011;58633;49.470;11.004;2023-02-12T08:46:05;44.50;;;22.90;;
6823;SDS011;58633;49.470;11.004;2023-02-12T08:48:39;43.87;;;22.77;;
6823;SDS011;58633;49.470;11.004;2023-02-12T08:51:09;42.20;;;22.40;;
6823;SDS011;58633;49.470;11.004;2023-02-12T08:53:40;43.87;;;23.03;;
6823;SDS011;58633;49.470;11.004;2023-02-12T08:56:08;43.50;;;22.43;;
6823;SDS011;58633;49.470;11.004;2023-02-12T08:58:35;45.43;;;21.83;;
6823;SDS011;58633;49.470;11.004;2023-02-12T09:01:01;44.90;;;23.27;;
6823;SDS011;58633;49.470;11.004;2023-02-12T09:03:28;48.43;;;23.27;;
6823;SDS011;58633;49.470;11.004;2023-02-12T09:05:53;43.10;;;22.70;;
6823;SDS011;58633;49.470;11.004;2023-02-12T09:08:19;47.90;;;23.57;;
6823;SDS011;58633;49.470;11.004;2023-02-12T09:10:44;43.97;;;22.73;;
6823;SDS011;58633;49.470;11.004;2023-02-12T09:13:11;49.97;;;23.63;;
6823;SDS011;58633;49.470;11.004;2023-02-12T09:15:42;52.83;;;22.10;;
6823;SDS011;58633;49.470;11.004;2023-02-12T09:18:09;52.10;;;23.30;;
6823;SDS011;58633;49.470;11.004;2023-02-12T09:20:36;50.87;;;23.70;;
6823;SDS011;58633;49.470;11.004;2023-02-12T09:23:04;49.57;;;22.43;;
6823;SDS011;58633;49.470;11.004;2023-02-12T09:25:31;47.47;;;22.73;;
6823;SDS011;58633;49.470;11.004;2023-02-12T09:27:58;48.03;;;22.90;;
6823;SDS011;58633;49.470;11.004;2023-02-12T09:30:24;52.03;;;24.97;;
6823;SDS011;58633;49.470;11.004;2023-02-12T09:32:50;51.60;;;23.93;;
6823;SDS011;58633;49.470;11.004;2023-02-12T09:35:15;46.83;;;21.90;;
6823;SDS011;58633;49.470;11.004;2023-02-12T09:37:42;47.27;;;22.03;;
6823;SDS011;58633;49.470;11.004;2023-02-12T09:40:09;53.10;;;23.47;;
6823;SDS011;58633;49.470;11.004;2023-02-12T09:43:17;54.30;;;24.10;;
6823;SDS011;58633;49.470;11.004;2023-02-12T09:48:47;50.30;;;22.93;;
6823;SDS011;58633;49.470;11.004;2023-02-12T09:51:18;47.07;;;24.07;;
6823;SDS011;58633;49.470;11.004;2023-02-12T09:53:45;51.93;;;25.27;;
6823;SDS011;58633;49.470;11.004;2023-02-12T09:56:14;49.17;;;24.70;;
6823;SDS011;58633;49.470;11.004;2023-02-12T09:58:46;52.83;;;24.57;;
6823;SDS011;58633;49.470;11.004;2023-02-12T10:01:22;51.50;;;23.73;;
6823;SDS011;58633;49.470;11.004;2023-02-12T10:03:48;51.27;;;23.17;;
6823;SDS011;58633;49.470;11.004;2023-02-12T10:06:16;55.53;;;24.30;;
6823;SDS011;58633;49.470;11.004;2023-02-12T10:19:31;50.03;;;24.00;;
6823;SDS011;58633;49.470;11.004;2023-02-12T10:22:18;50.47;;;23.40;;
6823;SDS011;58633;49.470;11.004;2023-02-12T10:24:56;41.57;;;20.57;;
6823;SDS011;58633;49.470;11.004;2023-02-12T10:27:40;39.27;;;19.57;;
6823;SDS011;58633;49.470;11.004;2023-02-12T10:30:56;35.63;;;16.80;;
6823;SDS011;58633;49.470;11.004;2023-02-12T10:33:16;28.33;;;13.13;;
6823;SDS011;58633;49.470;11.004;2023-02-12T10:35:50;29.67;;;14.20;;
6823;SDS011;58633;49.470;11.004;2023-02-12T10:38:25;30.00;;;15.43;;
6823;SDS011;58633;49.470;11.004;2023-02-12T10:40:55;32.33;;;15.00;;
6823;SDS011;58633;49.470;11.004;2023-02-12T10:43:22;32.27;;;15.07;;
6823;SDS011;58633;49.470;11.004;2023-02-12T10:45:48;32.50;;;15.10;;
6823;SDS011;58633;49.470;11.004;2023-02-12T10:53:43;34.03;;;16.07;;
6823;SDS011;58633;49.470;11.004;2023-02-12T10:58:56;37.07;;;16.33;;
6823;SDS011;58633;49.470;11.004;2023-02-12T11:01:27;33.13;;;16.30;;
6823;SDS011;58633;49.470;11.004;2023-02-12T11:07:04;32.67;;;16.47;;
6823;SDS011;58633;49.470;11.004;2023-02-12T11:09:33;34.40;;;16.63;;
6823;SDS011;58633;49.470;11.004;2023-02-12T11:12:04;33.23;;;15.37;;
6823;SDS011;58633;49.470;11.004;2023-02-12T11:14:56;30.70;;;15.03;;
6823;SDS011;58633;49.470;11.004;2023-02-12T11:17:25;32.87;;;15.93;;
6823;SDS011;58633;49.470;11.004;2023-02-12T11:20:06;33.57;;;15.23;;
6823;SDS011;58633;49.470;11.004;2023-02-12T11:22:51;29.33;;;14.90;;
6823;SDS011;58633;49.470;11.004;2023-02-12T11:25:25;31.30;;;15.13;;
6823;SDS011;58633;49.470;11.004;2023-02-12T11:28:13;30.93;;;15.53;;
6823;SDS011;58633;49.470;11.004;2023-02-12T11:30:54;32.43;;;15.03;;
6823;SDS011;58633;49.470;11.004;2023-02-12T11:33:24;31.83;;;15.30;;
6823;SDS011;58633;49.470;11.004;2023-02-12T11:36:02;32.10;;;15.33;;
6823;SDS011;58633;49.470;11.004;2023-02-12T11:38:36;32.73;;;15.87;;
6823;SDS011;58633;49.470;11.004;2023-02-12T11:46:36;29.67;;;15.27;;
6823;SDS011;58633;49.470;11.004;2023-02-12T11:49:04;30.63;;;15.50;;
6823;SDS011;58633;49.470;11.004;2023-02-12T11:51:33;30.87;;;15.43;;
6823;SDS011;58633;49.470;11.004;2023-02-12T11:54:01;30.70;;;14.80;;
6823;SDS011;58633;49.470;11.004;2023-02-12T11:56:41;31.07;;;15.13;;
6823;SDS011;58633;49.470;11.004;2023-02-12T12:01:58;29.30;;;14.40;;
6823;SDS011;58633;49.470;11.004;2023-02-12T12:04:46;29.37;;;13.67;;
6823;SDS011;58633;49.470;11.004;2023-02-12T12:07:15;28.47;;;13.87;;
6823;SDS011;58633;49.470;11.004;2023-02-12T12:10:12;27.70;;;13.97;;
6823;SDS011;58633;49.470;11.004;2023-02-12T12:12:47;27.17;;;14.10;;
6823;SDS011;58633;49.470;11.004;2023-02-12T12:18:11;28.50;;;14.17;;
6823;SDS011;58633;49.470;11.004;2023-02-12T12:21:19;31.13;;;14.93;;
6823;SDS011;58633;49.470;11.004;2023-02-12T12:23:53;27.73;;;13.87;;
6823;SDS011;58633;49.470;11.004;2023-02-12T12:26:28;29.37;;;14.93;;
6823;SDS011;58633;49.470;11.004;2023-02-12T12:32:04;29.40;;;14.40;;
6823;SDS011;58633;49.470;11.004;2023-02-12T12:34:31;31.63;;;15.93;;
6823;SDS011;58633;49.470;11.004;2023-02-12T12:37:18;32.80;;;15.50;;
6823;SDS011;58633;49.470;11.004;2023-02-12T12:39:58;31.17;;;14.97;;
6823;SDS011;58633;49.470;11.004;2023-02-12T12:48:01;28.57;;;15.10;;
6823;SDS011;58633;49.470;11.004;2023-02-12T12:50:53;30.63;;;15.70;;
6823;SDS011;58633;49.470;11.004;2023-02-12T12:53:32;29.60;;;15.17;;
6823;SDS011;58633;49.470;11.004;2023-02-12T13:03:58;28.10;;;14.10;;
6823;SDS011;58633;49.470;11.004;2023-02-12T13:09:12;29.07;;;15.00;;
6823;SDS011;58633;49.470;11.004;2023-02-12T13:17:43;30.45;;;15.75;;
6823;SDS011;58633;49.470;11.004;2023-02-12T13:20:20;29.63;;;14.60;;
6823;SDS011;58633;49.470;11.004;2023-02-12T13:25:38;29.53;;;15.97;;
6823;SDS011;58633;49.470;11.004;2023-02-12T13:31:09;25.88;;;14.50;;
6823;SDS011;58633;49.470;11.004;2023-02-12T13:34:27;30.52;;;17.65;;
6823;SDS011;58633;49.470;11.004;2023-02-12T13:36:56;29.38;;;15.65;;
6823;SDS011;58633;49.470;11.004;2023-02-12T13:39:34;30.42;;;15.18;;
6823;SDS011;58633;49.470;11.004;2023-02-12T13:44:37;30.23;;;14.82;;
6823;SDS011;58633;49.470;11.004;2023-02-12T13:47:11;30.02;;;15.43;;
6823;SDS011;58633;49.470;11.004;2023-02-12T13:52:32;29.95;;;14.63;;
6823;SDS011;58633;49.470;11.004;2023-02-12T14:03:33;28.73;;;15.55;;
6823;SDS011;58633;49.470;11.004;2023-02-12T14:08:36;30.52;;;16.42;;
6823;SDS011;58633;49.470;11.004;2023-02-12T14:11:08;27.05;;;14.55;;
6823;SDS011;58633;49.470;11.004;2023-02-12T14:14:10;31.92;;;15.68;;
6823;SDS011;58633;49.470;11.004;2023-02-12T14:21:59;30.60;;;15.57;;
6823;SDS011;58633;49.470;11.004;2023-02-12T14:27:00;29.17;;;15.57;;
6823;SDS011;58633;49.470;11.004;2023-02-12T14:29:29;30.63;;;15.75;;
6823;SDS011;58633;49.470;11.004;2023-02-12T14:31:57;31.67;;;15.65;;
6823;SDS011;58633;49.470;11.004;2023-02-12T14:37:09;28.97;;;15.23;;
6823;SDS011;58633;49.470;11.004;2023-02-12T14:39:42;29.48;;;15.18;;
6823;SDS011;58633;49.470;11.004;2023-02-12T14:47:12;31.20;;;16.25;;
6823;SDS011;58633;49.470;11.004;2023-02-12T14:49:48;32.87;;;17.00;;
6823;SDS011;58633;49.470;11.004;2023-02-12T14:52:19;32.60;;;16.85;;
6823;SDS011;58633;49.470;11.004;2023-02-12T14:54:56;31.00;;;16.38;;
6823;SDS011;58633;49.470;11.004;2023-02-12T14:57:28;30.35;;;16.77;;
6823;SDS011;58633;49.470;11.004;2023-02-12T15:02:38;32.03;;;17.05;;
6823;SDS011;58633;49.470;11.004;2023-02-12T15:05:11;32.55;;;16.88;;
6823;SDS011;58633;49.470;11.004;2023-02-12T15:08:25;33.60;;;16.83;;
6823;SDS011;58633;49.470;11.004;2023-02-12T15:10:48;30.23;;;16.45;;
6823;SDS011;58633;49.470;11.004;2023-02-12T15:15:51;28.98;;;16.02;;
6823;SDS011;58633;49.470;11.004;2023-02-12T15:18:25;29.20;;;16.42;;
6823;SDS011;58633;49.470;11.004;2023-02-12T15:23:44;31.52;;;16.95;;
6823;SDS011;58633;49.470;11.004;2023-02-12T15:26:14;28.23;;;15.68;;
6823;SDS011;58633;49.470;11.004;2023-02-12T15:28:44;29.33;;;16.50;;
6823;SDS011;58633;49.470;11.004;2023-02-12T15:31:13;31.02;;;16.67;;
6823;SDS011;58633;49.470;11.004;2023-02-12T15:33:43;27.13;;;15.57;;
6823;SDS011;58633;49.470;11.004;2023-02-12T15:36:11;28.23;;;15.85;;
6823;SDS011;58633;49.470;11.004;2023-02-12T15:38:47;31.10;;;17.17;;
6823;SDS011;58633;49.470;11.004;2023-02-12T15:43:55;30.38;;;16.10;;
6823;SDS011;58633;49.470;11.004;2023-02-12T15:46:21;30.27;;;16.77;;
6823;SDS011;58633;49.470;11.004;2023-02-12T15:48:47;31.63;;;17.25;;
6823;SDS011;58633;49.470;11.004;2023-02-12T15:51:15;34.78;;;19.02;;
6823;SDS011;58633;49.470;11.004;2023-02-12T15:53:59;29.70;;;16.73;;
6823;SDS011;58633;49.470;11.004;2023-02-12T15:56:27;27.05;;;15.48;;
6823;SDS011;58633;49.470;11.004;2023-02-12T15:58:55;32.08;;;17.33;;
6823;SDS011;58633;49.470;11.004;2023-02-12T16:01:32;32.75;;;17.67;;
6823;SDS011;58633;49.470;11.004;2023-02-12T16:04:02;34.35;;;18.10;;
6823;SDS011;58633;49.470;11.004;2023-02-12T16:06:30;33.50;;;16.25;;
6823;SDS011;58633;49.470;11.004;2023-02-12T16:11:24;32.58;;;17.60;;
6823;SDS011;58633;49.470;11.004;2023-02-12T16:13:58;28.85;;;15.80;;
6823;SDS011;58633;49.470;11.004;2023-02-12T16:16:34;28.67;;;15.70;;
6823;SDS011;58633;49.470;11.004;2023-02-12T16:19:26;28.00;;;16.67;;
6823;SDS011;58633;49.470;11.004;2023-02-12T16:22:11;28.67;;;15.20;;
6823;SDS011;58633;49.470;11.004;2023-02-12T16:24:50;29.88;;;15.23;;
6823;SDS011;58633;49.470;11.004;2023-02-12T16:27:18;28.30;;;15.73;;
6823;SDS011;58633;49.470;11.004;2023-02-12T16:29:48;28.50;;;15.97;;
6823;SDS011;58633;49.470;11.004;2023-02-12T16:32:31;30.80;;;15.97;;
6823;SDS011;58633;49.470;11.004;2023-02-12T16:35:01;33.60;;;16.70;;
6823;SDS011;58633;49.470;11.004;2023-02-12T16:40:09;29.13;;;15.80;;
6823;SDS011;58633;49.470;11.004;2023-02-12T16:42:38;29.40;;;15.63;;
6823;SDS011;58633;49.470;11.004;2023-02-12T16:47:50;31.53;;;15.60;;
6823;SDS011;58633;49.470;11.004;2023-02-12T16:50:22;32.43;;;17.53;;
6823;SDS011;58633;49.470;11.004;2023-02-12T16:52:50;31.93;;;17.60;;
6823;SDS011;58633;49.470;11.004;2023-02-12T16:55:46;31.80;;;18.10;;
6823;SDS011;58633;49.470;11.004;2023-02-12T16:58:12;41.70;;;23.00;;
6823;SDS011;58633;49.470;11.004;2023-02-12T17:00:37;41.50;;;21.60;;
6823;SDS011;58633;49.470;11.004;2023-02-12T17:03:03;34.03;;;18.70;;
6823;SDS011;58633;49.470;11.004;2023-02-12T17:05:29;32.20;;;18.83;;
6823;SDS011;58633;49.470;11.004;2023-02-12T17:07:54;33.13;;;17.67;;
6823;SDS011;58633;49.470;11.004;2023-02-12T17:10:20;35.43;;;18.23;;
6823;SDS011;58633;49.470;11.004;2023-02-12T17:12:47;37.17;;;18.67;;
6823;SDS011;58633;49.470;11.004;2023-02-12T17:18:08;36.70;;;18.10;;
6823;SDS011;58633;49.470;11.004;2023-02-12T17:20:35;34.73;;;18.37;;
6823;SDS011;58633;49.470;11.004;2023-02-12T17:23:01;35.13;;;19.10;;
6823;SDS011;58633;49.470;11.004;2023-02-12T17:25:28;36.20;;;19.17;;